Terminal Aerodrome Forecast
Issued by NWS

Home | Current Version | Previous Version | Graphics & Text | Print | Product List | Glossary On
Versions: 1 2 3 4 5 6 7 8 9 10 11 12 13 14 15 16 17 18 19 20 21 22
000
FTUS43 KICT 162300
TAFCNU
TAF
KCNU 162322Z 1700/1724 11005KT P6SM SCT025
     FM170800 15006KT 4SM BR VCTS SCT010 OVC020CB
     FM171500 19007KT P6SM VCTS BKN030CB
      TEMPO 1715/1718 OVC020CB=

USA.gov is the U.S. government's official web portal to all federal, state and local government web resources and services.